Date,TemperatureHighF,TemperatureAvgF,TemperatureLowF,DewpointHighF,DewpointAvgF,DewpointLowF,HumidityHigh,HumidityAvg,HumidityLow,PressureMaxIn,PressureMinIn,WindSpeedMaxMPH,WindSpeedAvgMPH,GustSpeedMaxMPH,PrecipitationSumIn
2013-1-1,-200.0,0.0,200.0,-99.9,-99.9,-99.9,0,0,100,30.31,30.23,9,1,12,0.00
2013-1-2,-200.0,0.0,200.0,-99.9,-99.9,-99.9,0,0,100,30.29,30.18,7,1,10,0.00
2013-1-3,-200.0,0.0,200.0,-99.9,-99.9,-99.9,0,0,100,30.31,30.21,7,0,8,0.00
2013-1-4,-200.0,0.0,200.0,-99.9,-99.9,-99.9,0,0,100,30.34,30.22,6,1,10,0.00
2013-1-5,-200.0,0.0,200.0,-99.9,-99.9,-99.9,0,0,100,30.30,30.12,3,0,7,0.45
2013-1-6,-200.0,0.0,200.0,-99.9,-99.9,-99.9,0,0,100,30.22,30.11,4,1,7,0.05
2013-1-7,-200.0,0.0,200.0,-99.9,-99.9,-99.9,0,0,100,30.27,30.19,6,1,8,0.00
2013-1-8,-200.0,0.0,200.0,-99.9,-99.9,-99.9,0,0,100,30.30,30.17,3,0,6,0.00
2013-1-9,-200.0,0.0,200.0,-99.9,-99.9,-99.9,0,0,100,30.20,29.98,8,2,15,0.00
2013-1-10,-200.0,0.0,200.0,-99.9,-99.9,-99.9,0,0,100,30.20,30.09,6,2,10,0.00
2013-1-11,-200.0,0.0,200.0,-99.9,-99.9,-99.9,0,0,100,30.27,30.14,6,2,11,0.00
2013-1-12,53.4,11.8,30.5,29.0,-61.2,-99.9,80,19,38,30.28,30.17,5,1,9,0.07
2013-1-13,50.9,36.8,24.9,29.0,22.2,10.0,89,60,26,30.31,30.21,6,1,11,0.00
2013-1-14,54.9,42.0,32.0,26.0,18.6,10.0,73,42,22,30.43,30.25,9,2,16,0.00
2013-1-15,50.8,37.4,28.7,32.0,27.7,24.0,87,70,44,30.54,30.43,7,1,9,0.00
2013-1-16,58.1,40.2,28.4,36.0,31.4,26.0,93,74,40,30.48,30.31,7,1,9,0.00
2013-1-17,60.2,40.6,28.6,40.0,32.8,27.0,95,77,40,30.32,30.20,5,1,10,0.00
2013-1-18,65.1,42.5,29.8,40.0,32.5,28.0,96,72,30,30.29,30.17,5,1,8,0.00
2013-1-19,65.5,42.6,29.7,36.0,31.6,27.0,90,69,27,30.31,30.20,5,1,13,0.00
2013-1-20,65.2,43.5,30.4,37.0,31.5,27.0,89,67,24,30.29,30.16,5,1,9,0.00
2013-1-21,61.6,43.5,29.9,41.0,33.8,27.0,89,71,41,30.23,30.15,7,1,9,0.00
2013-1-22,62.9,45.9,32.0,40.0,35.5,29.0,91,70,36,30.17,30.05,5,1,8,0.00
2013-1-23,51.0,47.7,44.2,49.0,43.1,38.0,96,84,69,30.15,30.01,6,1,11,0.18
2013-1-24,55.9,50.5,47.2,53.0,48.9,46.0,97,94,86,30.23,30.10,4,1,8,0.00
2013-1-25,66.6,55.6,48.5,56.0,51.8,48.0,98,88,66,30.22,30.06,6,1,10,0.00
2013-1-26,58.1,51.5,44.1,51.0,44.4,37.0,97,78,49,30.08,29.98,16,5,24,0.00
2013-1-27,58.1,47.0,35.6,40.0,34.7,29.0,89,65,34,30.19,30.08,8,2,13,0.00
2013-1-28,61.4,50.5,42.5,39.0,35.8,32.0,71,58,38,30.29,30.17,7,2,12,0.00
2013-1-29,61.1,49.6,39.0,45.0,39.1,35.0,84,68,49,30.37,30.27,7,2,12,0.00
2013-1-30,64.2,48.4,37.9,45.0,41.0,36.0,96,78,50,30.38,30.29,5,1,8,0.00
2013-1-31,65.6,48.1,36.2,48.0,41.7,35.0,97,81,51,30.34,30.22,3,1,7,0.00
2013-2-1,68.3,49.6,36.4,46.0,41.1,35.0,97,76,38,30.26,30.15,7,1,11,0.00
2013-2-2,65.8,50.6,40.9,48.0,43.2,38.0,92,78,46,30.32,30.23,4,1,9,0.00
2013-2-3,61.5,51.2,41.8,49.0,45.5,40.0,96,81,63,30.27,30.15,8,3,12,0.00
2013-2-4,59.5,49.2,39.5,48.0,43.9,38.0,97,83,63,30.20,30.08,9,2,11,0.00
2013-2-5,59.2,49.4,43.9,48.0,43.6,40.0,91,80,66,30.16,30.07,12,4,16,0.00
2013-2-6,60.0,47.3,36.3,44.0,39.9,35.0,96,77,51,30.21,30.13,10,3,16,0.00
2013-2-7,56.4,47.1,39.3,46.0,39.4,31.0,95,77,40,30.20,30.02,15,3,21,0.05
2013-2-8,59.1,47.1,36.4,39.0,30.6,20.0,93,59,24,30.04,29.96,8,2,15,0.00
2013-2-9,61.1,48.3,37.0,32.0,27.4,23.0,74,46,29,30.12,30.01,7,2,9,0.00
2013-2-10,62.1,45.7,31.7,39.0,33.1,28.0,86,64,40,30.16,30.04,6,1,12,0.00
2013-2-11,67.6,49.2,39.2,37.0,30.6,23.0,81,51,24,30.25,30.10,5,1,10,0.00
2013-2-12,61.9,46.5,33.5,40.0,36.3,31.0,92,70,43,30.41,30.25,6,1,9,0.00
2013-2-13,65.8,49.0,36.4,45.0,39.9,35.0,95,74,45,30.37,30.23,6,2,10,0.00
2013-2-14,71.7,51.9,37.4,47.0,42.0,36.0,96,73,38,30.28,30.18,8,1,11,0.00
2013-2-15,71.7,52.8,37.7,44.0,40.1,35.0,93,67,29,30.31,30.24,7,1,12,0.00
2013-2-16,69.5,52.5,39.7,47.0,42.5,37.0,90,71,42,30.27,30.05,6,1,10,0.00
2013-2-17,65.7,53.2,40.7,46.0,41.6,36.0,92,67,43,30.07,29.98,9,3,12,0.00
2013-2-18,54.1,48.6,44.9,43.0,40.8,37.0,87,75,57,30.05,29.96,16,6,21,0.00
2013-2-19,49.8,44.1,37.5,44.0,37.8,32.0,92,79,65,29.97,29.75,9,3,14,0.20
2013-2-20,63.1,47.9,34.2,40.0,34.7,31.0,88,63,36,30.06,29.87,10,3,16,0.00
2013-2-21,66.0,49.3,35.3,37.0,33.0,22.0,86,58,20,30.19,30.06,9,2,19,0.00
2013-2-22,64.1,49.8,37.8,44.0,38.3,33.0,84,67,41,30.28,30.17,11,4,18,0.00
2013-2-23,63.2,53.2,43.3,45.0,29.9,14.0,89,48,15,30.27,30.18,11,3,15,0.00
2013-2-24,66.5,54.4,41.2,32.0,24.0,19.0,67,33,18,30.27,30.18,10,4,21,0.00
2013-2-25,66.4,51.9,39.6,43.0,39.1,29.0,90,65,27,30.29,30.17,8,2,13,0.00
2013-2-26,73.5,53.8,37.5,38.0,27.3,15.0,86,46,11,30.24,30.14,9,2,13,0.00
2013-2-27,69.2,53.3,37.3,43.0,34.0,26.0,68,51,21,30.37,30.22,8,2,13,0.00
2013-2-28,70.0,58.5,50.3,52.0,48.4,43.0,91,70,50,30.45,30.37,9,3,14,0.00
2013-3-1,74.4,57.6,45.7,51.0,47.8,44.0,96,73,40,30.45,30.26,4,1,9,0.00
2013-3-2,70.7,59.0,47.1,53.0,48.6,45.0,92,71,47,30.27,30.08,10,2,15,0.00
2013-3-3,67.9,56.3,48.3,50.0,47.2,44.0,86,73,44,30.10,30.03,14,6,21,0.00
2013-3-4,60.4,50.7,46.3,49.0,43.9,39.0,92,78,61,30.17,30.06,12,6,20,0.00
2013-3-5,56.3,49.9,42.1,46.0,40.9,37.0,86,72,59,30.08,29.85,16,6,23,0.07
2013-3-6,57.2,50.9,40.2,47.0,40.9,36.0,89,70,47,30.08,29.86,20,5,25,0.03
2013-3-7,57.1,47.9,35.8,39.0,36.4,34.0,92,67,45,30.03,29.89,6,2,11,0.00
2013-3-8,63.3,49.8,39.0,44.0,39.6,35.0,87,70,41,30.05,29.86,16,4,18,0.00
2013-3-9,72.7,54.6,39.8,42.0,35.4,17.0,89,56,12,30.31,30.05,7,2,20,0.00
2013-3-10,70.0,53.6,39.4,43.0,38.9,34.0,89,60,36,30.38,30.26,7,1,8,0.00
2013-3-11,71.8,55.5,39.6,48.0,40.6,33.0,87,60,36,30.29,30.11,10,2,12,0.00
2013-3-12,76.4,59.3,43.7,54.0,47.2,42.0,93,67,39,30.18,30.08,6,1,9,0.00
2013-3-13,79.6,60.8,46.2,54.0,49.4,44.0,95,70,35,30.19,30.08,6,1,10,0.00
2013-3-14,71.5,60.3,49.5,56.0,50.4,45.0,93,71,50,30.16,30.09,10,3,16,0.00
2013-3-15,72.4,59.3,48.7,51.0,47.6,44.0,84,67,44,30.14,30.03,9,3,15,0.00
2013-3-16,71.9,60.1,48.4,52.0,46.7,40.0,89,64,41,30.11,30.01,11,4,18,0.00
2013-3-17,70.1,57.4,44.7,44.0,39.8,37.0,79,54,33,30.17,30.05,8,3,13,0.00
2013-3-18,68.8,56.6,43.6,46.0,43.3,40.0,87,63,39,30.13,30.03,9,3,12,0.00
2013-3-19,66.7,55.9,47.8,48.0,44.6,39.0,91,67,46,30.16,30.06,8,3,14,0.05
2013-3-20,58.3,53.2,48.1,55.0,50.5,45.0,95,90,83,30.15,30.09,11,3,19,0.11
2013-3-21,66.4,53.8,40.8,49.0,44.1,39.0,95,72,47,30.14,30.02,11,3,15,0.00
2013-3-22,67.8,53.5,43.5,41.0,24.1,11.0,86,40,11,30.13,30.06,12,3,17,0.00
2013-3-23,70.6,56.0,38.3,43.0,32.5,25.0,65,43,25,30.17,30.05,8,2,12,0.00
2013-3-24,72.4,56.8,42.6,47.0,42.6,35.0,87,61,27,30.11,29.97,12,3,17,0.00
2013-3-25,60.4,52.0,47.4,47.0,43.8,42.0,87,74,57,30.03,29.95,15,6,23,0.00
2013-3-26,67.3,54.7,45.8,49.0,44.5,42.0,88,70,50,30.01,29.94,14,5,16,0.00
2013-3-27,62.8,55.7,48.3,52.0,47.7,42.0,85,75,62,30.03,29.96,13,5,19,0.00
2013-3-28,70.7,58.4,52.4,53.0,50.8,49.0,89,77,50,30.11,30.03,6,2,10,0.00
2013-3-29,79.2,61.4,46.0,53.0,49.6,45.0,96,69,36,30.12,30.02,8,2,13,0.00
2013-3-30,64.9,59.7,55.1,55.0,51.7,48.0,88,75,57,30.08,30.01,14,4,19,0.09
2013-3-31,66.4,57.8,50.9,54.0,52.4,48.0,96,83,56,30.11,30.03,9,2,18,0.09
2013-4-1,66.7,57.3,52.9,55.0,52.1,49.0,96,84,55,30.18,30.08,9,2,13,0.13
2013-4-2,69.7,57.6,48.0,57.0,50.5,46.0,93,78,58,30.19,30.09,13,4,16,0.00
2013-4-3,76.5,59.9,48.8,56.0,50.2,46.0,92,73,40,30.15,29.99,9,3,15,0.00
2013-4-4,61.3,55.7,51.4,57.0,52.6,48.0,96,89,78,30.14,30.01,10,3,20,0.59
2013-4-5,64.5,58.0,53.2,54.0,51.6,49.0,93,80,61,30.20,30.13,11,3,14,0.00
2013-4-6,66.3,57.3,53.5,55.0,51.7,49.0,91,82,64,30.22,30.12,13,4,17,0.00
2013-4-7,65.0,56.4,50.4,55.0,49.2,45.0,93,77,57,30.17,29.83,13,5,24,0.16
2013-4-8,70.1,57.5,44.2,48.0,34.4,20.0,88,49,15,30.04,29.77,15,4,19,0.00
2013-4-9,77.5,66.3,57.3,36.0,30.0,24.0,38,27,15,30.12,30.04,12,4,22,0.00
2013-4-10,83.9,71.8,59.1,55.0,46.2,33.0,67,41,27,30.18,30.00,13,4,22,0.00
2013-4-11,73.9,63.2,52.4,51.0,47.8,45.0,80,59,41,30.03,29.84,12,5,16,0.00
2013-4-12,75.6,61.5,51.6,54.0,46.8,41.0,81,61,35,29.92,29.81,12,5,18,0.00
2013-4-13,70.3,59.2,51.5,51.0,45.1,41.0,76,61,44,29.91,29.80,13,7,20,0.00
2013-4-14,71.5,56.3,44.8,45.0,40.4,34.0,82,58,31,29.94,29.81,13,5,24,0.00
2013-4-15,62.5,53.1,45.1,44.0,38.6,31.0,89,61,31,29.96,29.84,15,5,31,0.00
2013-4-16,68.7,57.8,46.1,34.0,25.4,15.0,61,32,13,30.19,29.97,12,4,19,0.00
2013-4-17,70.9,60.8,52.9,30.0,25.6,20.0,40,27,15,30.30,30.19,12,3,17,0.00
2013-4-18,79.0,65.8,51.9,42.0,32.1,24.0,51,29,17,30.29,30.19,8,2,17,0.00
2013-4-19,80.3,65.5,49.2,53.0,46.3,38.0,81,52,30,30.24,30.05,9,2,16,0.00
2013-4-20,81.2,67.5,52.1,49.0,42.2,36.0,70,43,23,30.12,29.98,14,2,17,0.00
2013-4-21,86.4,68.3,49.8,50.0,45.5,41.0,80,48,23,30.05,29.92,10,2,14,0.00
2013-4-22,90.6,71.7,53.9,52.0,40.8,15.0,82,41,6,29.98,29.85,11,2,12,0.00
2013-4-23,85.2,71.4,55.1,47.0,28.3,17.0,70,23,9,29.95,29.85,16,5,27,0.00
2013-4-24,68.9,57.6,45.9,51.0,46.6,42.0,86,68,50,29.94,29.83,15,6,25,0.00
2013-4-25,66.5,56.8,51.1,52.0,47.8,46.0,84,73,56,30.13,29.93,19,7,27,0.00
2013-4-26,72.7,57.8,49.5,54.0,48.4,45.0,88,72,51,30.23,30.12,18,7,22,0.00
2013-4-27,80.5,61.3,48.0,56.0,49.9,46.0,91,69,40,30.23,30.05,11,5,20,0.00
2013-4-28,87.2,68.9,53.2,57.0,51.7,48.0,84,58,31,30.05,29.87,12,4,18,0.00
2013-4-29,88.8,73.5,56.5,54.0,52.1,49.0,80,50,28,29.90,29.75,9,3,17,0.00
2013-4-30,87.2,73.7,60.1,51.0,28.3,2.0,63,28,4,29.85,29.77,14,4,20,0.00
2013-5-1,88.3,75.9,63.9,31.0,19.4,11.0,28,13,8,30.08,29.85,13,4,22,0.00
2013-5-2,92.1,73.6,54.5,40.0,30.2,22.0,43,23,10,30.17,30.07,8,2,13,0.00
2013-5-3,93.0,74.3,55.9,47.0,36.8,30.0,50,27,15,30.07,29.78,9,2,16,0.00
2013-5-4,88.9,70.7,55.4,50.0,40.6,27.0,83,41,11,29.78,29.55,12,4,21,0.00
2013-5-5,68.8,60.7,54.9,50.0,48.6,46.0,78,65,46,29.83,29.61,11,4,14,0.00
2013-5-6,70.0,61.2,54.4,57.0,51.5,48.0,88,71,51,29.99,29.83,7,2,12,0.44
2013-5-7,72.7,63.3,56.4,54.0,51.0,47.0,81,66,46,30.05,29.98,15,4,18,0.01
2013-5-8,68.3,57.6,52.1,53.0,50.4,48.0,91,78,58,30.14,30.04,14,6,21,0.00
2013-5-9,70.1,58.7,50.4,54.0,49.9,48.0,90,74,52,30.16,30.07,17,7,25,0.00
2013-5-10,76.3,60.5,50.8,57.0,51.7,48.0,90,74,51,30.18,30.07,17,6,22,0.00
2013-5-11,88.2,68.1,54.9,59.0,54.1,50.0,87,64,36,30.12,30.03,13,5,17,0.00
2013-5-12,80.9,67.3,55.1,59.0,51.6,44.0,86,60,33,30.12,30.00,16,7,22,0.00
2013-5-13,81.1,66.4,54.1,58.0,52.9,49.0,86,64,45,30.07,29.92,16,7,21,0.00
2013-5-14,77.0,65.2,56.4,54.0,50.9,46.0,82,62,39,29.96,29.89,12,6,28,0.00
2013-5-15,72.0,60.4,51.5,49.0,46.9,44.0,76,62,42,30.04,29.96,13,7,22,0.00
2013-5-16,73.0,60.8,52.6,54.0,49.4,44.0,84,68,42,30.03,29.95,15,7,23,0.00
2013-5-17,70.8,58.7,48.4,49.0,45.0,39.0,86,63,32,30.07,29.96,15,6,20,0.00
2013-5-18,77.2,63.6,50.3,52.0,47.7,44.0,82,59,35,30.13,30.05,15,4,21,0.00
2013-5-19,87.5,70.5,53.3,48.0,41.7,25.0,74,41,11,30.13,29.97,10,3,16,0.00
2013-5-20,90.6,77.3,58.2,49.0,38.8,31.0,71,28,12,30.01,29.90,14,5,20,0.00
2013-5-21,73.4,62.8,56.0,49.0,43.4,38.0,75,51,33,29.96,29.88,18,8,25,0.00
2013-5-22,69.7,58.3,46.9,42.0,32.0,19.0,65,40,15,30.04,29.89,12,4,20,0.00
2013-5-23,71.4,58.6,45.7,45.0,40.9,38.0,78,54,34,30.00,29.91,13,4,16,0.00
2013-5-24,73.8,60.0,49.5,45.0,41.2,29.0,72,53,20,30.01,29.92,12,5,23,0.00
2013-5-25,71.6,58.7,50.5,48.0,45.4,43.0,78,63,40,30.02,29.96,15,6,22,0.00
2013-5-26,73.2,60.9,52.4,53.0,49.0,47.0,88,67,43,30.11,30.02,14,7,25,0.00
2013-5-27,64.0,58.2,51.5,56.0,50.6,44.0,92,76,62,30.11,30.01,10,5,17,0.02
2013-5-28,74.9,63.3,56.1,57.0,53.8,50.0,93,73,50,30.02,29.91,12,5,21,0.00
2013-5-29,74.2,64.5,56.8,55.0,51.1,48.0,77,63,46,29.96,29.89,18,7,22,0.00
2013-5-30,78.5,65.2,53.1,49.0,47.1,45.0,78,55,33,29.98,29.92,14,5,18,0.00
2013-5-31,91.0,72.6,53.3,51.0,47.8,45.0,74,45,22,30.01,29.89,13,4,20,0.00
2013-6-1,92.6,76.4,61.4,53.0,50.5,48.0,65,43,24,29.91,29.75,8,4,16,0.00
2013-6-2,84.4,70.0,57.3,54.0,50.9,48.0,78,53,33,29.75,29.65,18,7,21,0.00
2013-6-3,72.9,63.6,55.0,54.0,52.0,50.0,86,67,51,29.83,29.70,16,7,26,0.00
2013-6-4,71.3,63.6,54.9,54.0,50.8,49.0,82,64,51,29.93,29.88,13,8,27,0.00
2013-6-5,73.3,60.8,52.9,55.0,51.6,49.0,89,73,53,30.00,29.88,18,7,24,0.00
2013-6-6,79.7,62.3,51.9,57.0,52.4,49.0,90,72,46,29.95,29.81,15,7,26,0.00
2013-6-7,95.5,70.5,54.3,60.0,54.5,51.0,89,62,25,29.87,29.70,14,5,21,0.00
2013-6-8,98.1,77.2,64.0,59.0,55.3,53.0,72,49,25,29.78,29.67,19,6,24,0.00
2013-6-9,70.0,63.7,58.1,56.0,53.5,52.0,82,70,59,29.88,29.77,15,8,28,0.00
2013-6-10,66.7,60.7,56.9,54.0,52.4,51.0,87,75,61,29.97,29.81,14,6,22,0.00
2013-6-11,79.0,65.7,54.9,56.0,53.2,50.0,85,66,45,29.99,29.88,12,4,18,0.00
2013-6-12,80.2,66.8,56.5,53.0,48.5,43.0,81,55,33,29.96,29.89,15,6,22,0.00
2013-6-13,82.2,67.7,52.7,49.0,45.1,42.0,69,47,25,30.09,29.96,14,5,21,0.00
2013-6-14,88.8,72.6,57.8,49.0,44.0,37.0,64,39,16,29.98,29.82,13,3,18,0.00
2013-6-15,75.3,62.5,53.2,54.0,51.0,49.0,87,68,47,29.95,29.82,21,7,28,0.00
2013-6-16,82.7,67.7,55.3,53.0,49.1,46.0,82,54,31,30.05,29.95,18,7,25,0.00
2013-6-17,77.9,66.0,56.4,54.0,50.3,47.0,85,59,41,30.07,29.99,22,7,27,0.00
2013-6-18,72.3,61.6,53.2,52.0,49.4,46.0,89,67,41,30.01,29.92,20,7,31,0.00
2013-6-19,76.1,64.5,52.7,48.0,45.6,43.0,77,53,32,30.06,29.98,16,4,22,0.00
2013-6-20,80.2,66.4,53.0,49.0,46.3,42.0,75,51,27,30.00,29.92,15,5,21,0.00
2013-6-21,83.6,69.1,56.6,51.0,47.8,43.0,73,50,25,29.97,29.89,12,5,18,0.03
2013-6-22,88.6,72.3,58.4,53.0,50.4,47.0,71,49,25,29.93,29.81,13,5,19,0.00
2013-6-23,70.1,62.9,55.9,60.0,56.4,52.0,89,79,65,29.87,29.80,13,6,22,0.00
2013-6-24,65.1,60.7,58.2,59.0,55.9,54.0,90,84,73,29.93,29.80,11,4,15,0.01
2013-6-25,69.6,64.0,60.1,64.0,61.3,57.0,95,90,82,30.01,29.90,10,3,14,0.17
2013-6-26,83.8,71.3,62.1,65.0,61.9,59.0,95,74,47,30.06,29.98,13,4,16,0.00
2013-6-27,91.9,75.5,61.7,64.0,59.6,56.0,90,62,32,30.07,29.99,16,5,18,0.00
2013-6-28,99.1,82.7,66.2,64.0,59.9,53.0,81,50,27,30.01,29.86,14,4,20,0.00
2013-6-29,103.1,82.3,69.7,60.0,57.3,54.0,65,45,23,29.90,29.76,11,3,14,0.00
2013-6-30,96.1,80.0,66.7,60.0,57.9,56.0,72,49,28,29.82,29.72,12,6,20,0.00
2013-7-1,99.1,79.8,64.7,62.0,58.4,56.0,76,51,25,29.82,29.76,13,5,16,0.00
2013-7-2,90.0,75.5,63.0,61.0,57.5,54.0,81,55,34,29.91,29.78,17,6,21,0.00
2013-7-3,95.0,78.4,62.1,63.0,59.2,56.0,83,54,33,29.91,29.73,13,5,30,0.00
2013-7-4,95.9,81.7,71.9,63.0,58.1,49.0,65,46,31,29.75,29.63,16,6,22,0.00
2013-7-5,74.5,65.8,56.9,55.0,52.4,47.0,84,63,48,29.76,29.67,15,8,24,0.00
2013-7-6,74.2,61.4,55.1,55.0,52.8,51.0,87,75,49,29.81,29.72,16,6,21,0.00
2013-7-7,83.4,65.5,54.2,56.0,52.2,44.0,89,66,25,29.85,29.76,13,6,24,0.00
2013-7-8,87.1,64.1,54.0,56.0,51.1,34.0,88,68,15,29.96,29.84,13,6,19,0.00
2013-7-9,95.5,76.1,57.5,56.0,51.6,37.0,83,49,13,30.02,29.90,11,4,14,0.00
2013-7-10,85.9,67.4,55.3,55.0,52.6,50.0,86,62,30,29.95,29.87,18,8,27,0.00
2013-7-11,74.5,60.4,52.0,56.0,52.0,49.0,90,75,51,29.93,29.85,15,7,21,0.00
2013-7-12,78.4,63.2,54.9,57.0,53.3,51.0,88,72,47,29.95,29.85,16,7,22,0.00
2013-7-13,86.9,68.1,55.7,54.0,52.7,48.0,88,62,28,29.95,29.87,14,7,21,0.00
2013-7-14,82.4,65.3,53.8,57.0,53.3,49.0,87,67,41,29.98,29.86,15,7,20,0.00
2013-7-15,73.3,59.6,51.4,56.0,51.4,49.0,90,76,54,29.91,29.81,16,6,24,0.00
2013-7-16,71.1,61.1,55.2,56.0,52.8,51.0,86,75,55,30.02,29.87,14,5,22,0.00
2013-7-17,81.1,64.9,54.2,58.0,54.7,52.0,92,72,46,30.10,30.00,15,6,19,0.00
2013-7-18,87.9,67.9,55.3,57.0,54.1,52.0,89,65,32,30.04,29.91,15,6,20,0.00
2013-7-19,89.2,69.0,57.2,58.0,55.1,53.0,87,65,33,29.93,29.78,13,6,18,0.00
2013-7-20,84.3,64.6,55.5,58.0,54.5,52.0,90,72,41,29.84,29.69,17,7,19,0.00
2013-7-21,79.8,65.7,55.3,56.0,53.6,52.0,89,67,44,29.88,29.74,16,8,24,0.00
2013-7-22,83.3,68.7,58.8,58.0,53.8,42.0,84,62,23,29.97,29.87,14,5,25,0.00
2013-7-23,79.8,70.8,62.8,57.0,55.0,48.0,81,59,40,30.00,29.92,15,5,19,0.00
2013-7-24,88.8,73.7,59.8,58.0,53.8,50.0,84,53,28,29.96,29.86,19,7,22,0.00
2013-7-25,83.4,68.9,59.8,58.0,54.1,51.0,82,61,38,29.97,29.89,23,8,30,0.00
2013-7-26,82.7,66.1,54.7,59.0,54.1,51.0,88,67,44,30.07,29.95,18,8,25,0.00
2013-7-27,79.1,63.7,54.6,58.0,54.5,52.0,89,74,48,30.00,29.82,19,7,24,0.00
2013-7-28,72.8,61.2,54.6,57.0,53.5,52.0,92,77,53,29.87,29.78,15,7,24,0.00
2013-7-29,70.9,60.5,55.1,55.0,52.9,51.0,86,77,57,30.01,29.84,14,6,22,0.00
2013-7-30,77.1,62.3,53.7,58.0,53.4,51.0,90,74,48,30.10,30.00,17,8,22,0.00
2013-7-31,76.4,62.9,53.7,56.0,52.8,51.0,90,71,49,30.08,29.97,20,7,25,0.00
2013-8-1,77.8,65.4,54.9,54.0,52.4,50.0,85,65,41,30.05,29.94,15,6,21,0.00
2013-8-2,83.0,67.2,57.3,55.0,52.6,50.0,83,62,33,29.97,29.87,10,6,17,0.00
2013-8-3,77.9,63.0,54.6,56.0,53.7,52.0,90,74,47,29.98,29.88,16,6,21,0.00
2013-8-4,74.4,61.0,53.4,56.0,52.7,50.0,90,76,51,30.00,29.92,18,8,25,0.00
2013-8-5,76.9,61.7,52.5,56.0,52.5,50.0,91,74,47,30.03,29.91,14,7,22,0.00
2013-8-6,73.6,61.0,52.8,56.0,52.6,50.0,91,75,53,30.03,29.96,20,7,24,0.00
2013-8-7,70.5,62.3,56.6,57.0,54.3,51.0,85,76,61,30.11,30.02,16,6,22,0.00
2013-8-8,76.2,63.2,55.6,56.0,54.2,52.0,88,74,50,30.04,29.92,13,6,18,0.00
2013-8-9,75.1,61.9,54.2,57.0,53.8,51.0,90,76,53,29.98,29.91,14,6,23,0.00
2013-8-10,77.2,64.0,56.1,58.0,55.3,53.0,90,75,51,30.04,29.96,19,6,24,0.00
2013-8-11,81.0,65.0,55.5,59.0,55.5,53.0,93,74,46,30.02,29.91,17,7,19,0.00
2013-8-12,82.3,65.5,54.8,58.0,54.5,52.0,92,71,41,30.00,29.91,15,6,20,0.00
2013-8-13,91.8,71.4,57.1,56.0,53.1,46.0,86,58,21,29.99,29.88,12,4,18,0.00
2013-8-14,85.5,70.2,59.3,60.0,55.5,52.0,84,62,35,29.96,29.86,15,7,25,0.00
2013-8-15,85.9,71.4,61.7,64.0,61.2,58.0,89,72,46,29.95,29.88,19,7,23,0.00
2013-8-16,88.2,72.4,62.1,64.0,59.6,53.0,93,67,40,29.97,29.91,14,6,20,0.00
2013-8-17,81.5,69.8,61.7,59.0,57.7,56.0,85,67,46,29.97,29.83,14,6,21,0.00
2013-8-18,96.5,77.5,61.5,61.0,58.3,56.0,85,56,28,29.88,29.76,13,4,16,0.00
2013-8-19,95.1,77.9,64.3,61.0,57.8,55.0,77,52,31,29.88,29.77,16,5,22,0.00
2013-8-20,83.5,69.2,61.3,59.0,57.1,54.0,86,67,43,29.88,29.78,15,6,23,0.00
2013-8-21,80.6,66.6,58.6,57.0,54.8,52.0,86,68,44,29.93,29.83,16,6,21,0.00
2013-8-22,76.7,64.2,56.0,56.0,53.0,50.0,88,69,42,29.96,29.86,17,7,25,0.00
2013-8-23,79.7,65.1,55.9,58.0,55.1,53.0,89,72,47,29.92,29.77,16,7,20,0.00
2013-8-24,80.4,67.3,58.6,58.0,55.9,52.0,86,69,46,29.88,29.81,22,7,26,0.00
2013-8-25,81.3,69.5,61.9,62.0,59.7,57.0,88,73,50,29.94,29.88,16,5,20,0.00
2013-8-26,81.4,68.2,59.8,59.0,56.0,52.0,88,67,40,30.01,29.88,13,5,22,0.00
2013-8-27,86.1,70.1,61.1,58.0,55.4,52.0,82,62,35,29.89,29.80,14,5,21,0.00
2013-8-28,84.9,69.1,58.2,63.0,59.0,55.0,91,73,46,29.92,29.84,13,6,21,0.00
2013-8-29,85.1,70.4,60.4,64.0,60.5,58.0,93,73,44,30.04,29.93,16,6,18,0.00
2013-8-30,92.3,76.4,64.4,62.0,58.9,55.0,83,58,29,30.03,29.89,10,5,17,0.00
2013-8-31,83.3,71.0,61.1,60.0,56.8,51.0,82,63,34,29.95,29.86,16,7,21,0.00
2013-9-1,82.9,68.3,59.1,60.0,56.4,54.0,85,68,40,29.93,29.86,15,6,22,0.00
2013-9-2,81.9,70.1,62.7,62.0,59.8,58.0,87,72,47,29.95,29.87,12,6,20,0.00
2013-9-3,80.4,68.7,58.9,58.0,55.2,50.0,86,65,37,29.99,29.91,16,6,23,0.00
2013-9-4,81.5,68.6,58.2,58.0,56.2,53.0,87,67,41,30.02,29.92,15,6,21,0.00
2013-9-5,82.7,69.0,58.5,58.0,54.9,52.0,87,64,36,30.00,29.92,14,5,21,0.00
2013-9-6,95.4,74.1,54.0,56.0,50.4,46.0,86,50,19,29.99,29.83,5,1,13,0.00
2013-9-7,97.4,77.6,58.2,53.0,48.0,41.0,68,39,15,29.89,29.79,8,2,14,0.00
2013-9-8,96.2,77.1,60.9,57.0,53.7,47.0,78,49,22,29.87,29.73,8,3,13,0.00
2013-9-9,96.0,76.9,63.6,57.0,53.4,48.0,76,48,23,29.80,29.66,13,4,21,0.00
2013-9-10,74.9,65.4,58.9,60.0,57.6,55.0,88,76,59,29.90,29.69,17,7,27,0.00
2013-9-11,75.5,66.9,62.8,60.0,58.1,57.0,84,74,57,30.00,29.89,13,6,19,0.00
2013-9-12,81.1,67.2,60.8,62.0,58.7,56.0,89,75,52,29.98,29.85,16,6,21,0.00
2013-9-13,82.0,66.4,56.9,60.0,56.4,53.0,92,72,46,29.89,29.72,22,7,22,0.00
2013-9-14,76.7,64.7,56.4,59.0,55.4,53.0,90,73,51,29.81,29.70,18,7,24,0.00
2013-9-15,80.3,65.1,54.3,58.0,55.2,52.0,91,73,44,29.85,29.75,16,6,24,0.00
2013-9-16,83.4,68.4,59.5,59.0,56.9,54.0,91,70,41,29.89,29.76,13,6,20,0.00
2013-9-17,77.6,66.6,56.1,54.0,52.9,51.0,86,64,41,29.87,29.80,13,5,21,0.00
2013-9-18,85.5,69.5,56.3,51.0,46.8,42.0,75,49,22,29.92,29.80,12,2,19,0.00
2013-9-19,90.4,71.9,52.8,51.0,45.7,30.0,77,44,18,29.86,29.73,11,2,14,0.00
2013-9-20,77.6,65.6,55.3,60.0,54.9,47.0,86,69,50,29.85,29.75,16,6,22,0.00
2013-9-21,69.2,63.1,55.5,60.0,56.9,52.0,93,81,57,29.90,29.81,12,4,22,0.62
2013-9-22,75.0,61.4,48.9,56.0,52.1,48.0,96,74,43,30.01,29.90,12,2,20,0.00
2013-9-23,83.7,68.4,52.4,59.0,54.4,50.0,91,64,37,30.04,29.93,10,3,16,0.00
2013-9-24,78.5,66.0,58.0,58.0,52.1,46.0,82,63,36,29.98,29.86,19,5,26,0.00
2013-9-25,72.9,62.7,54.5,47.0,44.9,41.0,74,54,34,29.94,29.80,17,4,22,0.00
2013-9-26,77.4,66.3,54.0,42.0,35.2,28.0,58,34,16,29.99,29.84,8,2,14,0.00
2013-9-27,80.9,68.3,55.2,41.0,35.0,30.0,47,30,20,30.11,29.99,8,2,14,0.00
2013-9-28,83.5,65.0,48.9,55.0,42.0,31.0,83,48,15,30.10,30.00,12,3,20,0.00
2013-9-29,74.0,65.1,57.0,60.0,57.5,53.0,88,77,60,30.12,30.05,15,5,16,0.00
2013-9-30,74.1,66.2,57.7,62.0,60.0,45.0,92,81,62,30.08,29.96,10,3,13,0.01
2013-10-1,76.8,62.8,52.3,53.0,49.2,46.0,81,63,42,30.02,29.92,9,3,14,0.00
2013-10-2,76.6,62.6,50.6,51.0,46.8,39.0,89,60,34,30.01,29.93,12,3,17,0.00
2013-10-3,75.4,65.6,52.7,39.0,32.0,24.0,55,32,16,30.09,29.96,17,4,21,0.00
2013-10-4,83.0,71.3,63.8,29.0,25.8,21.0,26,19,10,30.11,29.99,14,4,22,0.00
2013-10-5,84.7,65.6,48.9,37.0,31.8,25.0,57,32,12,30.23,30.11,5,1,10,0.00
2013-10-6,84.9,64.5,46.6,43.0,35.8,32.0,67,38,15,30.16,30.00,4,1,9,0.00
2013-10-7,84.9,66.9,50.4,44.0,36.2,27.0,58,35,12,30.01,29.86,9,2,14,0.00
2013-10-8,77.7,62.8,49.0,49.0,44.9,39.0,82,55,29,29.92,29.70,7,2,13,0.00
2013-10-9,72.0,61.2,49.4,46.0,42.3,35.0,79,52,31,29.75,29.63,9,3,13,0.00
2013-10-10,72.0,61.4,50.8,50.0,44.5,34.0,77,56,30,30.00,29.75,9,3,13,0.00
2013-10-11,71.9,58.6,50.1,49.0,47.2,43.0,89,68,39,30.10,29.97,12,4,15,0.00
2013-10-12,71.6,58.0,47.4,51.0,47.5,44.0,90,70,46,30.01,29.88,10,4,13,0.00
2013-10-13,76.8,61.5,47.8,45.0,41.7,39.0,78,52,26,30.07,29.91,8,2,10,0.00
2013-10-14,80.1,61.3,45.4,46.0,39.1,35.0,76,48,20,30.14,30.01,7,1,10,0.00
2013-10-15,82.4,62.2,45.9,44.0,34.3,26.0,78,42,13,30.07,29.96,6,1,14,0.63
2013-10-16,81.9,61.8,45.2,40.0,34.0,29.0,58,38,17,30.13,30.00,5,1,7,0.00
2013-10-17,83.9,63.2,47.6,41.0,34.9,32.0,58,38,16,30.11,29.96,7,1,12,0.00
2013-10-18,83.3,63.5,48.0,46.0,39.2,33.0,69,44,21,30.07,29.98,6,1,8,0.00
2013-10-19,84.6,62.8,47.4,47.0,41.8,38.0,77,50,22,30.10,30.00,5,1,7,0.00
2013-10-20,81.7,62.8,46.4,48.0,43.2,39.0,79,53,23,30.03,29.89,8,2,13,0.00
2013-10-21,78.2,61.0,48.0,50.0,47.6,45.0,90,64,33,30.02,29.91,8,2,9,0.00
2013-10-22,83.3,61.9,45.9,51.0,48.3,43.0,92,65,31,30.04,29.91,6,1,7,0.00
2013-10-23,78.8,59.3,48.1,50.0,47.5,45.0,89,68,34,29.97,29.87,16,4,16,0.00
2013-10-24,66.7,55.3,48.0,50.0,47.5,45.0,90,76,53,30.08,29.95,13,6,21,0.00
2013-10-25,74.2,58.0,44.5,50.0,47.2,42.0,93,69,42,30.19,30.08,9,2,13,0.00
2013-10-26,81.7,61.4,46.4,51.0,46.6,42.0,91,62,31,30.17,30.02,3,1,7,0.00
2013-10-27,63.4,54.1,47.5,50.0,46.6,43.0,91,76,55,30.01,29.62,17,7,25,0.00
2013-10-28,65.2,55.0,45.1,47.0,43.1,40.0,85,66,45,29.85,29.66,10,3,16,0.00
2013-10-29,65.2,56.9,45.6,47.0,45.5,42.0,93,67,48,30.07,29.90,7,2,10,0.00
2013-10-30,67.8,53.4,41.7,49.0,44.0,40.0,96,73,46,30.17,30.07,5,1,10,0.00
2013-10-31,74.5,56.3,43.6,48.0,43.8,40.0,91,67,36,30.20,30.08,5,0,10,0.00
2013-11-1,76.1,56.7,43.3,48.0,42.8,40.0,90,64,28,30.19,30.03,8,1,10,0.00
2013-11-2,72.0,57.9,45.9,53.0,45.3,40.0,81,65,41,30.04,29.89,12,3,19,0.00
2013-11-3,67.5,56.8,46.4,45.0,29.0,20.0,79,37,17,30.05,29.94,5,1,11,0.00
2013-11-4,71.6,59.6,43.2,32.0,26.6,20.0,58,31,15,30.09,29.93,13,3,16,0.00
2013-11-5,73.1,59.3,46.3,38.0,33.5,27.0,61,40,25,30.24,30.06,10,2,17,0.00
2013-11-6,71.4,55.7,43.2,40.0,36.7,33.0,73,51,29,30.31,30.19,5,0,11,0.00
2013-11-7,76.3,60.7,48.5,50.0,40.1,35.0,77,49,24,30.19,30.07,8,2,13,0.00
2013-11-8,75.7,59.3,46.6,50.0,43.8,34.0,88,60,34,30.10,29.95,10,2,13,0.00
2013-11-9,74.5,56.3,42.6,49.0,42.0,34.0,88,62,34,30.06,29.98,5,1,10,0.00
2013-11-10,69.2,55.9,44.4,50.0,46.9,41.0,95,73,48,30.13,30.04,7,2,11,0.00
2013-11-11,67.8,55.6,42.8,49.0,45.3,40.0,92,70,46,30.20,30.10,7,1,9,0.00
2013-11-12,73.9,60.6,51.2,47.0,44.2,41.0,72,57,33,30.29,30.16,4,1,9,0.63
2013-11-13,78.1,60.7,47.1,51.0,46.2,40.0,80,62,32,30.26,30.09,9,2,15,0.00
2013-11-14,66.7,56.4,51.3,52.0,49.2,38.0,89,77,47,30.10,29.86,14,3,14,0.00
2013-11-15,67.4,57.5,46.8,47.0,38.0,33.0,81,50,32,29.87,29.74,10,3,12,0.00
2013-11-16,66.6,54.6,44.1,49.0,43.7,37.0,85,69,38,29.94,29.77,11,4,15,0.00
2013-11-17,65.2,52.1,41.4,49.0,45.5,39.0,95,79,54,30.11,29.93,5,1,7,0.00
2013-11-18,58.8,51.0,42.5,48.0,44.9,41.0,96,80,59,30.17,30.09,9,3,17,0.02
2013-11-19,56.6,54.4,52.0,54.0,51.8,48.0,96,90,82,30.12,29.97,7,1,10,0.62
2013-11-20,60.5,55.6,51.6,57.0,54.0,50.0,98,94,85,29.97,29.86,6,2,14,0.44
2013-11-21,63.5,56.4,47.3,51.0,32.9,18.0,96,50,20,30.00,29.91,14,4,35,0.04
2013-11-22,72.5,64.0,53.5,24.0,9.6,4.0,31,12,7,30.03,29.91,14,5,25,0.00
2013-11-23,63.8,50.2,41.0,40.0,33.1,23.0,75,54,30,30.13,30.00,9,2,16,0.00
2013-11-24,63.0,46.9,35.1,45.0,38.8,31.0,92,75,50,30.28,30.13,5,1,7,0.00
2013-11-25,63.5,47.5,37.5,45.0,40.5,36.0,96,79,48,30.37,30.28,5,0,6,0.00
2013-11-26,62.6,47.9,38.9,44.0,39.1,37.0,95,74,40,30.30,30.09,5,1,10,0.00
2013-11-27,64.1,50.3,39.8,42.0,39.5,35.0,85,68,43,30.09,29.88,9,1,11,0.00
2013-11-28,70.4,52.2,40.6,44.0,41.1,38.0,91,69,36,30.08,29.91,4,0,7,0.00
2013-11-29,68.1,51.9,40.6,46.0,42.3,38.0,91,72,44,30.23,30.08,4,1,6,0.00
2013-11-30,66.6,50.9,41.8,47.0,42.8,40.0,93,76,46,30.30,30.21,4,0,7,1.75
2013-12-1,69.5,51.7,40.4,47.0,42.9,38.0,94,74,43,30.37,30.24,3,0,6,0.00
2013-12-2,64.7,51.9,40.0,52.0,46.0,39.0,96,81,59,30.25,29.95,14,3,16,0.00
2013-12-3,56.1,49.8,41.3,52.0,34.8,19.0,89,59,34,29.97,29.87,9,3,18,0.00
2013-12-4,52.2,41.3,28.2,21.0,16.4,10.0,58,39,20,30.12,29.96,6,1,14,0.00
2013-12-5,51.3,35.6,25.7,23.0,17.6,13.0,78,51,26,30.20,30.11,5,1,7,0.00
2013-12-6,48.2,36.6,25.6,47.0,30.7,22.0,96,80,53,30.23,29.93,9,1,22,0.74
2013-12-7,48.8,39.7,28.5,44.0,31.2,21.0,94,75,34,30.29,29.92,6,1,15,0.01
2013-12-8,46.6,33.8,26.8,30.0,24.6,21.0,94,72,40,30.36,30.27,6,1,10,0.00
2013-12-9,48.2,33.7,23.8,26.0,21.8,17.0,84,65,29,30.47,30.35,8,1,14,0.00
2013-12-10,53.0,35.9,24.8,31.0,25.9,21.0,87,70,36,30.46,30.25,5,1,8,0.00
2013-12-11,56.4,38.6,27.8,33.0,28.8,25.0,90,71,37,30.31,30.22,5,1,10,0.00
2013-12-12,58.8,40.2,28.9,36.0,31.3,26.0,90,73,42,30.32,30.20,4,0,5,0.00
2013-12-13,59.7,42.6,30.4,42.0,34.1,28.0,94,74,42,30.36,30.25,4,0,6,0.00
2013-12-14,59.3,42.7,31.9,39.0,34.7,30.0,94,76,43,30.46,30.34,7,1,12,0.00
2013-12-15,63.8,43.1,31.2,40.0,35.4,30.0,95,77,40,30.41,30.28,4,1,5,0.00
2013-12-16,64.0,45.5,34.0,40.0,36.1,32.0,93,73,38,30.30,30.17,8,1,8,0.00
2013-12-17,65.1,47.0,37.1,43.0,37.6,34.0,90,72,36,30.23,30.06,4,0,7,0.00
2013-12-18,61.0,48.4,38.3,46.0,40.7,35.0,90,76,46,30.07,29.74,14,2,18,0.00
2013-12-19,61.5,52.4,45.0,43.0,28.2,12.0,79,44,22,29.95,29.72,8,2,15,0.00
2013-12-20,63.8,47.1,33.8,28.0,21.7,12.0,62,39,19,30.04,29.94,4,1,11,0.00
2013-12-21,61.8,44.9,34.9,39.0,33.0,27.0,82,65,43,30.12,29.98,4,1,6,0.00
2013-12-22,62.3,45.6,33.5,40.0,35.8,31.0,91,71,42,30.32,30.12,4,0,7,0.00
2013-12-23,64.7,46.8,36.0,42.0,37.4,33.0,92,72,42,30.44,30.32,4,0,7,0.00
2013-12-24,67.5,48.6,39.1,43.0,39.3,36.0,90,73,41,30.37,30.23,4,1,6,0.00
2013-12-25,65.9,46.0,32.9,43.0,36.8,31.0,94,74,33,30.36,30.24,5,1,11,0.00
2013-12-26,67.7,45.8,32.4,41.0,34.7,30.0,91,70,27,30.30,30.21,5,1,9,0.00
2013-12-27,59.9,44.0,34.5,40.0,34.6,30.0,89,72,43,30.29,30.15,3,0,5,0.00
2013-12-28,67.6,50.4,31.7,37.0,30.3,18.0,91,55,17,30.18,30.04,6,1,11,0.00
2013-12-29,63.7,49.2,36.4,35.0,29.3,20.0,77,50,20,30.22,30.11,8,1,17,0.00
2013-12-30,62.4,45.1,32.8,38.0,33.1,28.0,84,65,39,30.30,30.22,3,0,6,0.00
2013-12-31,64.4,45.9,37.2,37.0,34.1,32.0,86,66,34,30.31,30.18,4,0,7,0.00
2014-1-1,62.8,46.2,35.2,37.0,32.5,28.0,79,61,34,30.25,30.15,3,0,5,0.00
2014-1-2,64.8,46.8,34.9,40.0,35.0,31.0,84,65,39,30.23,30.08,5,1,5,0.00